Time;durP1;ratioP1;P1;durP2;ratioP2;P2;SDS_P1;SDS_P2;PMS_P1;PMS_P2;Temp;Humidity;BMP_temperature;BMP_pressure;BME280_temperature;BME280_humidity;BME280_pressure;Samples;Min_cycle;Max_cycle;Signal;HPM_P1;HPM_P2
2022/01/03 08:42:44;;;;;;;;;;;12.80;99.90;;;;;;6245118;22;20268;-91
2022/01/03 08:45:12;;;;;;;;;;;12.80;99.90;;;;;;6241372;23;19907;-92
2022/01/03 08:47:37;;;;;;;;;;;12.80;99.90;;;;;;6242074;23;19910;-91
2022/01/03 08:50:04;;;;;;;;;;;12.80;99.90;;;;;;6244734;22;19904;-92
2022/01/03 08:52:30;;;;;;;;;;;12.90;99.90;;;;;;6264676;22;19895;-91
2022/01/03 08:54:56;;;;;;;;;;;12.80;99.90;;;;;;6270720;22;19907;-89
2022/01/03 08:57:22;;;;;;;;;;;12.80;99.90;;;;;;6270969;22;19895;-91
2022/01/03 08:59:48;;;;;;;;;;;12.90;99.90;;;;;;6259586;22;19908;-91
2022/01/03 09:02:16;;;;;;;;;;;12.90;99.90;;;;;;6252032;22;19926;-93
2022/01/03 09:04:44;;;;;;;;;;;12.90;99.90;;;;;;6242576;22;19915;-94
2022/01/03 09:07:10;;;;;;;;;;;12.90;99.90;;;;;;6241477;23;19954;-91
2022/01/03 09:09:36;;;;;;;;;;;12.90;99.90;;;;;;6242444;22;19907;-91
2022/01/03 09:12:02;;;;;;;;;;;13.00;99.90;;;;;;6242692;22;19904;-93
2022/01/03 09:14:28;;;;;;;;;;;13.00;99.90;;;;;;6242671;22;20249;-92
2022/01/03 09:16:54;;;;;;;;;;;13.10;99.90;;;;;;6242560;22;20021;-91
2022/01/03 09:19:20;;;;;;;;;;;13.10;99.90;;;;;;6241896;23;19947;-91
2022/01/03 09:21:45;;;;;;;;;;;13.10;99.90;;;;;;6242019;23;19908;-91
2022/01/03 09:24:27;;;;;;;;;;;13.10;99.90;;;;;;6242358;22;20292;-90
2022/01/03 09:29:37;;;;;;;;;;;13.20;99.90;;;;;;6242314;23;19995;-90
2022/01/03 09:32:03;;;;;;;;;;;13.30;99.90;;;;;;6242469;22;19904;-90
2022/01/03 09:34:29;;;;;;;;;;;13.30;99.90;;;;;;6242308;23;19986;-90
2022/01/03 09:36:54;;;;;;;;;;;13.30;99.90;;;;;;6244241;22;19908;-92
2022/01/03 09:39:20;;;;;;;;;;;13.30;99.90;;;;;;6243464;22;20007;-91
2022/01/03 09:41:55;;;;;;;;;;;13.40;99.90;;;;;;6245218;22;19908;-92
2022/01/03 09:44:21;;;;;;;;;;;13.30;99.90;;;;;;6242303;23;19904;-91
2022/01/03 09:46:48;;;;;;;;;;;13.40;99.90;;;;;;6244909;22;20329;-93
2022/01/03 09:49:16;;;;;;;;;;;13.40;99.90;;;;;;6244567;22;19962;-94
2022/01/03 09:51:42;;;;;;;;;;;13.40;99.90;;;;;;6243740;23;20243;-93
2022/01/03 09:54:10;;;;;;;;;;;13.30;99.90;;;;;;6243740;23;19982;-95
2022/01/03 09:56:37;;;;;;;;;;;13.40;99.90;;;;;;6243894;22;19911;-90
2022/01/03 09:59:05;;;;;;;;;;;13.40;99.90;;;;;;6240619;23;19907;-90
2022/01/03 10:01:31;;;;;;;;;;;13.50;99.90;;;;;;6241243;23;19908;-90
2022/01/03 10:03:57;;;;;;;;;;;13.50;99.90;;;;;;6243386;23;19903;-92
2022/01/03 10:06:24;;;;;;;;;;;13.50;99.90;;;;;;6242011;23;20315;-90
2022/01/03 10:08:49;;;;;;;;;;;13.50;99.90;;;;;;6245386;22;19903;-91
2022/01/03 10:11:15;;;;;;;;;;;13.50;99.90;;;;;;6242018;23;20286;-92
2022/01/03 10:13:41;;;;;;;;;;;13.50;99.90;;;;;;6241529;23;19908;-94
2022/01/03 10:16:07;;;;;;;;;;;13.50;99.90;;;;;;6243633;22;19907;-93
2022/01/03 10:18:33;;;;;;;;;;;13.50;99.90;;;;;;6245208;22;19903;-91
2022/01/03 10:21:00;;;;;;;;;;;13.60;99.90;;;;;;6243375;23;19911;-92
2022/01/03 10:23:25;;;;;;;;;;;13.50;99.90;;;;;;6245058;22;19949;-92
2022/01/03 10:25:51;;;;;;;;;;;13.60;99.90;;;;;;6246884;22;19904;-91
2022/01/03 10:28:27;;;;;;;;;;;13.70;99.90;;;;;;6245186;22;19904;-91
2022/01/03 10:30:53;;;;;;;;;;;13.70;99.90;;;;;;6246329;22;20333;-92
2022/01/03 10:33:20;;;;;;;;;;;13.70;99.90;;;;;;6243138;23;19904;-93
2022/01/03 10:35:50;;;;;;;;;;;13.70;99.90;;;;;;6245503;22;19911;-91
2022/01/03 10:38:33;;;;;;;;;;;13.80;99.90;;;;;;6245709;22;19949;-92
2022/01/03 10:41:10;;;;;;;;;;;13.70;99.90;;;;;;6243677;23;19952;-92
2022/01/03 10:43:35;;;;;;;;;;;13.70;99.90;;;;;;6247583;22;19931;-92
2022/01/03 10:46:15;;;;;;;;;;;13.80;99.90;;;;;;6247574;23;19911;-91
2022/01/03 10:48:40;;;;;;;;;;;13.70;99.90;;;;;;6246790;23;19910;-93
2022/01/03 10:51:06;;;;;;;;;;;13.70;99.90;;;;;;6243640;23;19947;-92
2022/01/03 10:53:32;;;;;;;;;;;13.60;99.90;;;;;;6243534;23;20359;-93
2022/01/03 10:55:58;;;;;;;;;;;13.60;99.90;;;;;;6243403;23;19916;-92
2022/01/03 10:58:31;;;;;;;;;;;13.70;99.90;;;;;;6246895;22;19990;-91
2022/01/03 11:00:58;;;;;;;;;;;13.70;99.90;;;;;;6248097;23;20263;-93
2022/01/03 11:05:56;;;;;;;;;;;13.70;99.90;;;;;;6249530;22;19903;-93
2022/01/03 11:11:08;;;;;;;;;;;13.70;99.90;;;;;;6247521;23;20307;-94
2022/01/03 11:13:37;;;;;;;;;;;13.60;99.90;;;;;;6246493;22;19911;-93
2022/01/03 11:16:03;;;;;;;;;;;13.60;99.90;;;;;;6245849;23;19907;-94
2022/01/03 11:18:30;;;;;;;;;;;13.70;99.90;;;;;;6246987;23;19949;-94
2022/01/03 11:21:06;;;;;;;;;;;13.70;99.90;;;;;;6251845;22;20049;-93
2022/01/03 11:23:31;;;;;;;;;;;13.70;99.90;;;;;;6270977;22;19892;-89
2022/01/03 11:26:03;;;;;;;;;;;13.70;99.90;;;;;;6270757;22;19911;-93
2022/01/03 11:28:29;;;;;;;;;;;13.70;99.90;;;;;;6271332;22;19907;-91
2022/01/03 11:30:59;;;;;;;;;;;13.70;99.90;;;;;;6264590;22;19904;-91
2022/01/03 11:33:25;;;;;;;;;;;13.80;99.90;;;;;;6258069;23;19904;-93
2022/01/03 11:35:51;;;;;;;;;;;13.80;99.90;;;;;;6260160;23;19916;-92
2022/01/03 11:38:21;;;;;;;;;;;13.80;99.90;;;;;;6255824;22;20145;-91
2022/01/03 11:40:47;;;;;;;;;;;13.80;99.90;;;;;;6256487;23;19914;-91
2022/01/03 11:43:13;;;;;;;;;;;13.80;99.90;;;;;;6254261;23;19990;-92
2022/01/03 11:45:39;;;;;;;;;;;13.90;99.90;;;;;;6257365;22;19958;-92
2022/01/03 11:48:07;;;;;;;;;;;13.90;99.90;;;;;;6256850;22;19935;-93
2022/01/03 11:50:33;;;;;;;;;;;13.90;99.90;;;;;;6255190;22;19935;-91
2022/01/03 11:52:59;;;;;;;;;;;13.90;99.90;;;;;;6250473;23;19908;-90
2022/01/03 11:55:25;;;;;;;;;;;13.90;99.90;;;;;;6248303;23;19918;-90
2022/01/03 12:06:02;;;;;;;;;;;14.10;99.90;;;;;;6261055;23;19910;-90
2022/01/03 12:08:29;;;;;;;;;;;14.00;99.90;;;;;;6254424;22;19911;-89
2022/01/03 12:10:57;;;;;;;;;;;14.00;99.90;;;;;;6249234;22;19914;-89
2022/01/03 12:13:42;;;;;;;;;;;14.00;99.90;;;;;;6244237;22;20240;-88
2022/01/03 12:16:08;;;;;;;;;;;14.00;99.90;;;;;;6242612;23;20324;-89
2022/01/03 12:18:33;;;;;;;;;;;14.00;99.90;;;;;;6244145;22;19927;-89
2022/01/03 12:20:59;;;;;;;;;;;14.00;99.90;;;;;;6245023;22;19903;-88
2022/01/03 12:23:42;;;;;;;;;;;14.00;99.90;;;;;;6243722;23;19904;-90
2022/01/03 12:26:08;;;;;;;;;;;14.00;99.90;;;;;;6218948;23;19907;-88
2022/01/03 12:28:53;;;;;;;;;;;14.10;99.90;;;;;;6242114;23;19904;-88
2022/01/03 12:31:18;;;;;;;;;;;14.00;99.90;;;;;;6243564;23;19954;-89
2022/01/03 12:34:04;;;;;;;;;;;14.10;99.90;;;;;;6244004;22;20256;-87
2022/01/03 12:36:29;;;;;;;;;;;14.00;99.90;;;;;;6244180;23;19908;-88
2022/01/03 12:39:06;;;;;;;;;;;14.00;99.90;;;;;;6244531;22;19931;-88
2022/01/03 12:41:42;;;;;;;;;;;14.00;99.90;;;;;;6247716;22;19903;-88
2022/01/03 12:44:09;;;;;;;;;;;14.00;99.90;;;;;;6247365;22;19912;-88
2022/01/03 12:46:34;;;;;;;;;;;14.00;99.90;;;;;;6245359;23;19903;-88
2022/01/03 12:49:20;;;;;;;;;;;14.00;99.90;;;;;;6248078;22;20217;-89
2022/01/03 12:51:45;;;;;;;;;;;13.90;99.90;;;;;;6247355;23;19910;-88
2022/01/03 12:54:11;;;;;;;;;;;13.90;99.90;;;;;;6245168;23;19928;-89
2022/01/03 12:56:37;;;;;;;;;;;13.70;99.90;;;;;;6248831;22;19903;-89
2022/01/03 12:59:10;;;;;;;;;;;13.80;99.90;;;;;;6247512;22;19983;-88
2022/01/03 13:01:35;;;;;;;;;;;13.70;99.90;;;;;;6246446;22;19954;-88
2022/01/03 13:04:04;;;;;;;;;;;13.60;99.90;;;;;;6246561;23;19907;-87
2022/01/03 13:06:33;;;;;;;;;;;13.60;99.90;;;;;;6252168;22;19942;-91
2022/01/03 13:08:59;;;;;;;;;;;13.60;99.90;;;;;;6251118;22;19911;-90
2022/01/03 13:11:28;;;;;;;;;;;13.60;99.90;;;;;;6248579;22;19905;-89
2022/01/03 13:13:55;;;;;;;;;;;13.60;99.90;;;;;;6245711;23;19907;-87
2022/01/03 13:16:41;;;;;;;;;;;13.60;99.90;;;;;;6245745;22;19947;-89
2022/01/03 13:19:12;;;;;;;;;;;13.70;99.90;;;;;;6246779;23;19913;-92
2022/01/03 13:21:39;;;;;;;;;;;13.70;99.90;;;;;;6245918;22;19903;-90
2022/01/03 13:24:32;;;;;;;;;;;13.60;99.90;;;;;;6244891;22;20439;-90
2022/01/03 13:27:00;;;;;;;;;;;13.70;99.90;;;;;;6241804;23;19957;-90
2022/01/03 13:29:27;;;;;;;;;;;13.60;99.90;;;;;;6246393;22;19903;-88
2022/01/03 13:31:53;;;;;;;;;;;13.60;99.90;;;;;;6247453;22;20313;-89
2022/01/03 13:34:19;;;;;;;;;;;13.70;99.90;;;;;;6244378;22;19912;-92
2022/01/03 13:36:45;;;;;;;;;;;13.60;99.90;;;;;;6244062;23;19910;-90
2022/01/03 13:39:12;;;;;;;;;;;13.70;99.90;;;;;;6249648;22;19904;-88
2022/01/03 13:41:42;;;;;;;;;;;13.70;99.90;;;;;;6246169;23;19916;-89
2022/01/03 13:44:11;;;;;;;;;;;13.70;99.90;;;;;;6250742;22;19926;-90
2022/01/03 13:49:22;;;;;;;;;;;13.70;99.90;;;;;;6246611;23;20389;-88
2022/01/03 13:51:47;;;;;;;;;;;13.80;99.90;;;;;;6255263;22;19942;-86
2022/01/03 13:54:23;;;;;;;;;;;13.80;99.90;;;;;;6266902;22;19964;-87
2022/01/03 13:56:49;;;;;;;;;;;13.80;99.90;;;;;;6268762;22;19895;-86
2022/01/03 13:59:15;;;;;;;;;;;13.80;99.90;;;;;;6265839;22;19903;-88
2022/01/03 14:01:40;;;;;;;;;;;13.70;99.90;;;;;;6254730;22;19934;-91
2022/01/03 14:04:06;;;;;;;;;;;13.70;99.90;;;;;;6245711;22;20006;-89
2022/01/03 14:06:32;;;;;;;;;;;13.70;99.90;;;;;;6247923;22;19910;-89
2022/01/03 14:08:58;;;;;;;;;;;13.70;99.90;;;;;;6247156;22;20250;-93
2022/01/03 14:11:26;;;;;;;;;;;13.60;99.90;;;;;;6246763;23;19904;-92
2022/01/03 14:13:52;;;;;;;;;;;13.70;99.90;;;;;;6248451;23;19914;-90
2022/01/03 14:16:19;;;;;;;;;;;13.60;99.90;;;;;;6252182;22;19916;-91
2022/01/03 14:18:48;;;;;;;;;;;13.50;99.90;;;;;;6246343;23;19949;-89
2022/01/03 14:21:18;;;;;;;;;;;13.60;99.90;;;;;;6246844;22;19904;-89
2022/01/03 14:23:51;;;;;;;;;;;13.60;99.90;;;;;;6244982;23;19907;-89
2022/01/03 14:26:16;;;;;;;;;;;13.70;99.90;;;;;;6247215;22;19914;-89
2022/01/03 14:28:42;;;;;;;;;;;13.60;99.90;;;;;;6248460;22;20245;-92
2022/01/03 14:31:11;;;;;;;;;;;13.70;99.90;;;;;;6246746;23;20241;-90
2022/01/03 14:33:38;;;;;;;;;;;13.70;99.90;;;;;;6249016;23;19908;-88
2022/01/03 14:36:14;;;;;;;;;;;13.70;99.90;;;;;;6251456;22;19910;-89
2022/01/03 14:38:41;;;;;;;;;;;13.70;99.90;;;;;;6249538;22;19904;-92
2022/01/03 14:41:20;;;;;;;;;;;13.70;99.90;;;;;;6246427;22;19907;-88
2022/01/03 14:43:54;;;;;;;;;;;13.70;99.90;;;;;;6243374;23;19911;-91
2022/01/03 14:46:27;;;;;;;;;;;13.70;99.90;;;;;;6244591;22;19926;-90
2022/01/03 14:48:53;;;;;;;;;;;13.80;99.90;;;;;;6242435;23;19907;-89
2022/01/03 14:51:18;;;;;;;;;;;13.80;99.90;;;;;;6244024;23;19904;-89
2022/01/03 14:53:44;;;;;;;;;;;13.80;99.90;;;;;;6245303;22;19994;-88
2022/01/03 14:56:24;;;;;;;;;;;13.90;99.90;;;;;;6246051;22;19911;-88
2022/01/03 14:58:50;;;;;;;;;;;13.90;99.90;;;;;;6246545;22;19903;-88
2022/01/03 15:01:15;;;;;;;;;;;13.90;99.90;;;;;;6246267;22;20248;-90
2022/01/03 15:03:41;;;;;;;;;;;13.90;99.90;;;;;;6243273;23;19982;-90
2022/01/03 15:06:06;;;;;;;;;;;13.90;99.90;;;;;;6244105;23;19990;-88
2022/01/03 15:08:35;;;;;;;;;;;13.90;99.90;;;;;;6245170;22;19911;-89
2022/01/03 15:11:00;;;;;;;;;;;13.90;99.90;;;;;;6244247;23;19904;-90
2022/01/03 15:13:26;;;;;;;;;;;13.90;99.90;;;;;;6245411;22;19914;-91
2022/01/03 15:15:51;;;;;;;;;;;13.90;99.90;;;;;;6246089;23;19970;-89
2022/01/03 15:18:17;;;;;;;;;;;13.90;99.90;;;;;;6241236;23;19911;-87
2022/01/03 15:20:42;;;;;;;;;;;13.90;99.90;;;;;;6242093;23;19908;-89
2022/01/03 15:23:08;;;;;;;;;;;13.80;99.90;;;;;;6248446;22;19910;-91
2022/01/03 15:25:35;;;;;;;;;;;13.80;99.90;;;;;;6245407;22;19904;-91
2022/01/03 15:28:03;;;;;;;;;;;13.80;99.90;;;;;;6243674;23;19915;-89
2022/01/03 15:30:37;;;;;;;;;;;13.70;99.90;;;;;;6245017;23;20375;-90
2022/01/03 15:33:02;;;;;;;;;;;13.70;99.90;;;;;;6243482;22;19915;-91
2022/01/03 15:35:28;;;;;;;;;;;13.70;99.90;;;;;;6245898;22;19911;-91
2022/01/03 15:37:54;;;;;;;;;;;13.70;99.90;;;;;;6243711;22;19989;-90
2022/01/03 15:40:19;;;;;;;;;;;13.70;99.90;;;;;;6239971;23;19907;-91
2022/01/03 15:42:45;;;;;;;;;;;13.70;99.90;;;;;;6238753;23;20006;-88
2022/01/03 15:45:10;;;;;;;;;;;13.70;99.90;;;;;;6239654;22;19957;-87
2022/01/03 15:47:36;;;;;;;;;;;13.60;99.90;;;;;;6239527;23;19908;-88
2022/01/03 15:50:03;;;;;;;;;;;13.60;99.90;;;;;;6240909;22;19943;-91
2022/01/03 15:52:28;;;;;;;;;;;13.60;99.90;;;;;;6243848;22;20150;-88
2022/01/03 15:54:54;;;;;;;;;;;13.70;99.90;;;;;;6244688;22;19915;-90
2022/01/03 15:57:19;;;;;;;;;;;13.60;99.90;;;;;;6242129;22;19907;-89
2022/01/03 15:59:46;;;;;;;;;;;13.60;99.90;;;;;;6241409;22;19903;-89
2022/01/03 16:02:12;;;;;;;;;;;13.60;99.90;;;;;;6240770;22;20320;-89
2022/01/03 16:04:37;;;;;;;;;;;13.50;99.90;;;;;;6239936;23;20006;-88
2022/01/03 16:07:05;;;;;;;;;;;13.60;99.90;;;;;;6239743;22;19953;-87
2022/01/03 16:09:30;;;;;;;;;;;13.60;99.90;;;;;;6238556;23;19904;-91
2022/01/03 16:11:56;;;;;;;;;;;13.60;99.90;;;;;;6239548;22;20037;-88
2022/01/03 16:14:22;;;;;;;;;;;13.60;99.90;;;;;;6238083;23;19911;-89
2022/01/03 16:16:49;;;;;;;;;;;13.60;99.90;;;;;;6238250;23;19986;-90
2022/01/03 16:19:15;;;;;;;;;;;13.50;99.90;;;;;;6237672;23;19903;-88
2022/01/03 16:21:43;;;;;;;;;;;13.60;99.90;;;;;;6239327;22;19950;-89
2022/01/03 16:24:09;;;;;;;;;;;13.60;99.90;;;;;;6240165;22;19982;-88
2022/01/03 16:26:35;;;;;;;;;;;13.60;99.90;;;;;;6248497;23;19914;-87
2022/01/03 16:29:11;;;;;;;;;;;13.50;99.90;;;;;;6255551;23;19911;-87
2022/01/03 16:31:37;;;;;;;;;;;13.50;99.90;;;;;;6262561;22;19923;-88
2022/01/03 16:34:03;;;;;;;;;;;13.50;99.90;;;;;;6256243;22;19911;-89
2022/01/03 16:36:29;;;;;;;;;;;13.50;99.90;;;;;;6245598;23;20370;-88
2022/01/03 16:38:57;;;;;;;;;;;13.50;99.90;;;;;;6241517;23;19955;-89
2022/01/03 16:41:23;;;;;;;;;;;13.40;99.90;;;;;;6243953;22;19908;-87
2022/01/03 16:43:48;;;;;;;;;;;13.40;99.90;;;;;;6242002;22;19934;-89
2022/01/03 16:46:14;;;;;;;;;;;13.30;99.90;;;;;;6243496;23;19903;-91
2022/01/03 16:48:39;;;;;;;;;;;13.30;99.90;;;;;;6245467;23;20467;-89
2022/01/03 16:51:05;;;;;;;;;;;13.20;99.90;;;;;;6242626;23;19903;-90
2022/01/03 16:53:30;;;;;;;;;;;13.30;99.90;;;;;;6243237;23;19952;-90
2022/01/03 16:55:56;;;;;;;;;;;13.80;99.90;;;;;;6244292;22;20298;-89
2022/01/03 16:58:21;;;;;;;;;;;13.20;99.90;;;;;;6243890;23;20292;-89
2022/01/03 17:00:47;;;;;;;;;;;13.10;99.90;;;;;;6245991;22;20409;-89
2022/01/03 17:03:13;;;;;;;;;;;13.00;99.90;;;;;;6254491;22;19903;-90
2022/01/03 17:05:41;;;;;;;;;;;13.00;99.90;;;;;;6245013;23;19903;-89
2022/01/03 17:08:07;;;;;;;;;;;12.90;99.90;;;;;;6245877;22;19942;-91
2022/01/03 17:10:32;;;;;;;;;;;13.00;99.90;;;;;;6242465;23;19904;-92
2022/01/03 17:12:58;;;;;;;;;;;13.00;99.90;;;;;;6242567;23;19903;-90
2022/01/03 17:15:27;;;;;;;;;;;12.90;99.90;;;;;;6244825;23;20323;-89
2022/01/03 17:17:56;;;;;;;;;;;12.90;99.90;;;;;;6243740;23;19904;-90
2022/01/03 17:20:23;;;;;;;;;;;12.90;99.90;;;;;;6245950;22;19903;-91
2022/01/03 17:22:48;;;;;;;;;;;12.80;99.90;;;;;;6237121;23;19904;-88
2022/01/03 17:25:15;;;;;;;;;;;12.80;99.90;;;;;;6240290;22;20347;-90
2022/01/03 17:27:41;;;;;;;;;;;12.90;99.90;;;;;;6238217;23;19922;-87
2022/01/03 17:30:07;;;;;;;;;;;12.90;99.90;;;;;;6240306;22;19946;-91
2022/01/03 17:32:33;;;;;;;;;;;12.90;99.90;;;;;;6238258;22;19903;-91
2022/01/03 17:34:58;;;;;;;;;;;12.90;99.90;;;;;;6233794;23;20190;-89
2022/01/03 17:37:24;;;;;;;;;;;12.80;99.90;;;;;;6233958;23;19908;-91
2022/01/03 17:39:50;;;;;;;;;;;12.70;99.90;;;;;;6235433;22;20673;-88
2022/01/03 17:42:16;;;;;;;;;;;12.80;99.90;;;;;;6233772;23;20332;-90
2022/01/03 17:44:41;;;;;;;;;;;12.80;99.90;;;;;;6233602;23;19914;-91
2022/01/03 17:47:07;;;;;;;;;;;12.80;99.90;;;;;;6236365;23;20290;-90
2022/01/03 17:49:35;;;;;;;;;;;12.80;99.90;;;;;;6236053;23;19907;-90
2022/01/03 17:52:03;;;;;;;;;;;12.80;99.90;;;;;;6205186;23;21214;-92
2022/01/03 17:54:28;;;;;;;;;;;12.80;99.90;;;;;;6204516;23;20132;-92
2022/01/03 17:56:54;;;;;;;;;;;12.90;99.90;;;;;;6205281;23;19912;-90
2022/01/03 17:59:19;;;;;;;;;;;12.80;99.90;;;;;;6205414;23;19935;-92
2022/01/03 18:01:45;;;;;;;;;;;12.80;99.90;;;;;;6203503;23;19915;-91
2022/01/03 18:04:11;;;;;;;;;;;12.80;99.90;;;;;;6204485;23;19979;-91
2022/01/03 18:06:37;;;;;;;;;;;12.90;99.90;;;;;;6206300;23;19908;-91
2022/01/03 18:09:03;;;;;;;;;;;12.90;99.90;;;;;;6204159;23;19919;-91
2022/01/03 18:11:28;;;;;;;;;;;12.80;99.90;;;;;;6204680;23;20197;-90
2022/01/03 18:13:54;;;;;;;;;;;12.90;99.90;;;;;;6202793;23;19946;-92
2022/01/03 18:16:21;;;;;;;;;;;12.80;99.90;;;;;;6205424;23;19939;-89
2022/01/03 18:18:49;;;;;;;;;;;12.90;99.90;;;;;;6203572;23;19966;-89
2022/01/03 18:21:15;;;;;;;;;;;12.90;99.90;;;;;;6203646;23;19904;-91
2022/01/03 18:23:40;;;;;;;;;;;12.90;99.90;;;;;;6203441;23;19983;-90
2022/01/03 18:26:06;;;;;;;;;;;12.90;99.90;;;;;;6204141;23;19935;-90
2022/01/03 18:28:31;;;;;;;;;;;12.90;99.90;;;;;;6204735;23;20521;-90
2022/01/03 18:30:57;;;;;;;;;;;12.90;99.90;;;;;;6202962;23;19946;-92
2022/01/03 18:33:22;;;;;;;;;;;12.90;99.90;;;;;;6205410;23;19916;-90
2022/01/03 18:35:48;;;;;;;;;;;12.80;99.90;;;;;;6203126;23;19926;-91
2022/01/03 18:38:14;;;;;;;;;;;12.90;99.90;;;;;;6206205;23;19919;-90
2022/01/03 18:40:40;;;;;;;;;;;12.90;99.90;;;;;;6207786;23;19928;-89
2022/01/03 18:43:05;;;;;;;;;;;12.90;99.90;;;;;;6208309;23;19912;-89
2022/01/03 18:45:31;;;;;;;;;;;13.00;99.90;;;;;;6207548;23;19911;-92
2022/01/03 18:47:57;;;;;;;;;;;13.00;99.90;;;;;;6213596;23;19908;-92
2022/01/03 18:50:23;;;;;;;;;;;12.50;99.90;;;;;;6209587;23;19908;-90
2022/01/03 18:52:49;;;;;;;;;;;12.90;99.90;;;;;;6211052;23;19911;-92
2022/01/03 18:55:15;;;;;;;;;;;12.90;99.90;;;;;;6211552;23;19912;-91
2022/01/03 18:57:41;;;;;;;;;;;12.90;99.90;;;;;;6210417;23;19923;-90
2022/01/03 19:00:08;;;;;;;;;;;13.00;99.90;;;;;;6212734;23;19907;-91
2022/01/03 19:02:34;;;;;;;;;;;12.90;99.90;;;;;;6212485;23;19948;-91
2022/01/03 19:04:59;;;;;;;;;;;12.90;99.90;;;;;;6220554;23;19907;-90
2022/01/03 19:07:26;;;;;;;;;;;13.00;99.90;;;;;;6229980;23;19908;-89
2022/01/03 19:10:04;;;;;;;;;;;12.90;99.90;;;;;;6237049;23;19908;-92
2022/01/03 19:12:32;;;;;;;;;;;13.00;99.90;;;;;;6233623;23;19908;-91
2022/01/03 19:14:58;;;;;;;;;;;13.00;99.90;;;;;;6220900;23;20443;-92
2022/01/03 19:17:23;;;;;;;;;;;13.00;99.90;;;;;;6216476;23;19911;-92
2022/01/03 19:19:50;;;;;;;;;;;13.00;99.90;;;;;;6212018;23;19904;-92
2022/01/03 19:22:18;;;;;;;;;;;13.00;99.90;;;;;;6212986;23;20288;-93
2022/01/03 19:24:48;;;;;;;;;;;13.00;99.90;;;;;;6211980;23;19904;-93
2022/01/03 19:27:18;;;;;;;;;;;13.00;99.90;;;;;;6211085;23;19935;-92
2022/01/03 19:29:51;;;;;;;;;;;13.00;99.90;;;;;;6209628;23;19986;-92
2022/01/03 19:32:21;;;;;;;;;;;13.00;99.90;;;;;;6213605;23;19912;-91
2022/01/03 19:40:15;;;;;;;;;;;13.00;99.90;;;;;;6213646;23;20296;-91
2022/01/03 19:42:41;;;;;;;;;;;13.00;99.90;;;;;;6207507;23;20327;-90
2022/01/03 19:45:07;;;;;;;;;;;13.00;99.90;;;;;;6208492;23;19915;-91
2022/01/03 19:47:32;;;;;;;;;;;12.90;99.90;;;;;;6207134;23;19915;-91
2022/01/03 19:49:58;;;;;;;;;;;12.90;99.90;;;;;;6208171;23;19943;-91
2022/01/03 19:52:23;;;;;;;;;;;12.90;99.90;;;;;;6206983;23;19954;-92
2022/01/03 19:54:54;;;;;;;;;;;12.90;99.90;;;;;;6208561;23;19961;-91
2022/01/03 20:00:59;;;;;;;;;;;;;;;;;;;;;
2022/01/03 20:03:24;;;;;;;;;;;13.00;99.90;;;;;;6212636;23;20297;-93
2022/01/03 20:05:50;;;;;;;;;;;13.00;99.90;;;;;;6211873;23;19904;-94
2022/01/03 20:08:16;;;;;;;;;;;12.90;99.90;;;;;;6210863;23;20074;-92
2022/01/03 20:11:07;;;;;;;;;;;12.90;99.90;;;;;;6212596;23;19911;-93
2022/01/03 20:13:54;;;;;;;;;;;;;;;;;;;;;
2022/01/03 20:32:33;;;;;;;;;;;13.20;99.90;;;;;;5919673;24;19911;-90
2022/01/03 20:38:38;;;;;;;;;;;;;;;;;;;;;
2022/01/03 20:41:24;;;;;;;;;;;13.00;99.90;;;;;;5919389;24;19988;-92
2022/01/03 20:44:20;;;;;;;;;;;;;;;;;;;;;
2022/01/03 20:46:55;;;;;;;;;;;13.00;99.90;;;;;;6157922;23;19952;-90
2022/01/03 20:49:32;;;;;;;;;;;13.10;99.90;;;;;;6207793;23;19908;-92
2022/01/03 20:52:20;;;;;;;;;;;13.00;99.90;;;;;;6208618;23;19970;-91
2022/01/03 20:55:16;;;;;;;;;;;13.10;99.90;;;;;;6208366;23;19915;-91
2022/01/03 21:00:55;;;;;;;;;;;;;;;;;;;;;
2022/01/03 21:04:02;;;;;;;;;;;13.10;99.90;;;;;;6210381;23;20411;-92
2022/01/03 21:06:55;;;;;;;;;;;;;;;;;;;;;
2022/01/03 21:09:23;;;;;;;;;;;13.10;99.90;;;;;;6209766;23;19987;-93
2022/01/03 21:11:51;;;;;;;;;;;13.00;99.90;;;;;;6207807;23;19904;-92
2022/01/03 21:14:27;;;;;;;;;;;13.10;99.90;;;;;;6207720;23;19923;-91
2022/01/03 21:17:13;;;;;;;;;;;13.10;99.90;;;;;;6207677;23;19908;-90
2022/01/03 21:20:07;;;;;;;;;;;13.10;99.90;;;;;;6205639;23;19915;-91
2022/01/03 21:22:50;;;;;;;;;;;;;;;;;;;;;
2022/01/03 21:25:25;;;;;;;;;;;13.10;99.90;;;;;;6206176;23;19983;-90
2022/01/03 21:28:03;;;;;;;;;;;;;;;;;;;;;
2022/01/03 21:30:59;;;;;;;;;;;;;;;;;;;;;
2022/01/03 21:36:33;;;;;;;;;;;13.10;99.90;;;;;;6056378;23;19918;-91
2022/01/03 21:39:04;;;;;;;;;;;13.10;99.90;;;;;;6171527;23;19962;-91
2022/01/03 21:41:49;;;;;;;;;;;13.10;99.90;;;;;;6218492;23;19896;-92
2022/01/03 21:44:45;;;;;;;;;;;;;;;;;;;;;
2022/01/03 21:50:56;;;;;;;;;;;;;;;;;;;;;
2022/01/03 21:56:10;;;;;;;;;;;13.20;99.90;;;;;;6114149;23;20448;-90
2022/01/03 21:58:59;;;;;;;;;;;13.20;99.90;;;;;;6120679;23;19905;-92
2022/01/03 22:05:09;;;;;;;;;;;;;;;;;;;;;
2022/01/03 22:07:48;;;;;;;;;;;;;;;;;;;;;
2022/01/03 22:28:50;;;;;;;;;;;11.40;99.90;;;;;;6032864;23;19956;-90
2022/01/03 22:34:12;;;;;;;;;;;11.10;99.90;;;;;;6137928;23;20227;-90
2022/01/03 22:36:48;;;;;;;;;;;;;;;;;;;;;
2022/01/03 22:39:42;;;;;;;;;;;10.80;99.90;;;;;;6152688;23;19987;-92
2022/01/03 22:42:10;;;;;;;;;;;10.70;99.90;;;;;;6193861;23;19916;-91
2022/01/03 22:44:39;;;;;;;;;;;10.50;99.90;;;;;;6213290;23;20249;-90
2022/01/03 22:47:27;;;;;;;;;;;10.50;99.90;;;;;;6212872;23;19904;-90
2022/01/03 22:50:20;;;;;;;;;;;10.60;99.90;;;;;;6212840;23;19903;-91
2022/01/03 22:52:53;;;;;;;;;;;10.40;99.90;;;;;;6191266;23;19904;-90
2022/01/03 22:55:20;;;;;;;;;;;10.40;99.90;;;;;;6212301;23;19916;-91
2022/01/03 22:57:46;;;;;;;;;;;10.10;99.90;;;;;;6212310;23;19904;-90
2022/01/03 23:00:17;;;;;;;;;;;10.20;99.90;;;;;;6212887;23;19904;-91
2022/01/03 23:06:19;;;;;;;;;;;;;;;;;;;;;
2022/01/03 23:12:01;;;;;;;;;;;;;;;;;;;;;
2022/01/03 23:14:35;;;;;;;;;;;9.90;99.90;;;;;;6064415;23;19992;-91
2022/01/03 23:17:02;;;;;;;;;;;10.10;99.90;;;;;;6206110;23;19911;-90
2022/01/03 23:22:18;;;;;;;;;;;9.90;99.90;;;;;;6207983;23;19952;-90
2022/01/03 23:24:48;;;;;;;;;;;9.80;99.90;;;;;;6211982;23;19911;-91
2022/01/03 23:27:14;;;;;;;;;;;9.70;99.90;;;;;;6212209;23;20347;-89
2022/01/03 23:29:52;;;;;;;;;;;;;;;;;;;;;
2022/01/03 23:32:20;;;;;;;;;;;9.60;99.90;;;;;;6213322;23;20392;-91
2022/01/03 23:34:49;;;;;;;;;;;9.50;99.90;;;;;;6211704;23;19938;-90
2022/01/03 23:37:26;;;;;;;;;;;9.50;99.90;;;;;;6212290;23;20333;-90
2022/01/03 23:40:03;;;;;;;;;;;9.50;99.90;;;;;;6211818;23;19904;-90
2022/01/03 23:42:56;;;;;;;;;;;9.40;99.90;;;;;;6211700;23;19919;-90
2022/01/03 23:45:49;;;;;;;;;;;;;;;;;;;;;
2022/01/03 23:48:15;;;;;;;;;;;9.40;99.90;;;;;;6213120;23;19948;-88
2022/01/03 23:50:43;;;;;;;;;;;9.40;99.90;;;;;;6212196;23;20356;-90
2022/01/03 23:53:09;;;;;;;;;;;9.40;99.90;;;;;;6212676;23;19908;-89
2022/01/03 23:55:34;;;;;;;;;;;9.40;99.90;;;;;;6211430;23;19919;-92
2022/01/03 23:58:07;;;;;;;;;;;9.50;99.90;;;;;;6211951;23;19904;-93
